Terminal Aerodrome Forecast
Issued by NWS Quad Cities IA IL

Home | Current Version | Previous Version | Graphics & Text | Print | Product List | Glossary On
Versions: 1 2 3 4 5 6 7 8 9 10 11 12 13 14 15 16 17 18 19 20
000
FTUS43 KDVN 252334
TAFMLI
TAF
KMLI 252334Z 2600/2624 19010KT P6SM FEW050
     FM260130 17007KT P6SM FEW080
     FM261100 19006KT 5SM BR BKN025
     FM261400 21009KT 6SM -SHRA BR BKN035=

USA.gov is the U.S. government's official web portal to all federal, state and local government web resources and services.